createdAt,value
2019-03-11T00:01:32.249Z,3.51
2019-03-11T00:04:03.980Z,3.58
2019-03-11T00:06:35.681Z,3.66
2019-03-11T00:09:07.315Z,3.65
2019-03-11T00:11:40.653Z,3.69
2019-03-11T00:14:12.374Z,3.80
2019-03-11T00:16:43.910Z,3.90
2019-03-11T00:19:15.625Z,4.01
2019-03-11T00:21:47.211Z,3.93
2019-03-11T00:24:19.138Z,3.93
2019-03-11T00:26:50.835Z,3.93
2019-03-11T00:29:22.441Z,3.97
2019-03-11T00:31:54.008Z,3.94
2019-03-11T00:34:25.736Z,3.96
2019-03-11T00:36:57.515Z,3.98
2019-03-11T00:39:29.101Z,4.15
2019-03-11T00:42:00.748Z,4.14
2019-03-11T00:44:32.329Z,4.12
2019-03-11T00:47:03.910Z,4.15
2019-03-11T00:49:35.404Z,4.20
2019-03-11T00:52:07.056Z,4.30
2019-03-11T00:54:38.712Z,4.39
2019-03-11T00:57:10.367Z,4.41
2019-03-11T00:59:41.964Z,4.42
2019-03-11T01:02:13.483Z,4.47
2019-03-11T01:04:45.116Z,4.45
2019-03-11T01:07:16.717Z,4.56
2019-03-11T01:09:48.567Z,4.64
2019-03-11T01:12:20.228Z,4.73
2019-03-11T01:14:51.870Z,4.79
2019-03-11T01:17:23.456Z,4.79
2019-03-11T01:19:55.013Z,4.76
2019-03-11T01:22:26.563Z,4.77
2019-03-11T01:24:58.122Z,4.75
2019-03-11T01:27:30.793Z,4.66
2019-03-11T01:30:02.443Z,4.71
2019-03-11T01:32:34.222Z,4.69
2019-03-11T01:35:08.243Z,4.74
2019-03-11T01:37:39.758Z,4.79
2019-03-11T01:40:17.935Z,4.85
2019-03-11T01:42:51.615Z,4.82
2019-03-11T01:45:22.721Z,4.90
2019-03-11T01:47:54.510Z,4.89
2019-03-11T01:50:26.098Z,4.89
2019-03-11T01:52:58.152Z,4.86
2019-03-11T01:55:30.040Z,4.85
2019-03-11T01:58:01.611Z,4.78
2019-03-11T02:00:33.114Z,4.75
2019-03-11T02:03:04.759Z,4.71
2019-03-11T02:05:36.421Z,4.75
2019-03-11T02:08:08.096Z,4.87
2019-03-11T02:10:40.178Z,4.91
2019-03-11T02:13:11.774Z,4.87
2019-03-11T02:15:43.299Z,4.77
2019-03-11T02:18:14.797Z,4.81
2019-03-11T02:20:46.459Z,4.83
2019-03-11T02:23:18.499Z,4.85
2019-03-11T02:25:50.001Z,4.86
2019-03-11T02:28:21.526Z,4.93
2019-03-11T02:30:53.415Z,4.89
2019-03-11T02:33:25.025Z,4.88
2019-03-11T02:35:56.547Z,4.94
2019-03-11T02:38:28.116Z,4.93
2019-03-11T02:41:00.063Z,4.87
2019-03-11T02:43:31.570Z,4.90
2019-03-11T02:46:03.109Z,4.88
2019-03-11T02:48:34.600Z,4.87
2019-03-11T02:51:06.180Z,4.88
2019-03-11T02:53:37.778Z,4.84
2019-03-11T02:56:09.377Z,4.91
2019-03-11T02:58:41.158Z,4.79
2019-03-11T03:01:15.109Z,4.83
2019-03-11T03:04:00.366Z,4.82
2019-03-11T03:06:32.082Z,4.83
2019-03-11T03:09:04.296Z,4.89
2019-03-11T03:11:35.995Z,4.84
2019-03-11T03:14:07.561Z,4.96
2019-03-11T03:16:39.085Z,4.95
2019-03-11T03:19:10.731Z,4.99
2019-03-11T03:21:42.330Z,4.98
2019-03-11T03:24:13.981Z,4.98
2019-03-11T03:26:45.766Z,5.01
2019-03-11T03:29:18.382Z,4.98
2019-03-11T03:31:50.247Z,5.06
2019-03-11T03:34:21.833Z,5.09
2019-03-11T03:36:53.370Z,5.05
2019-03-11T03:39:25.187Z,5.14
2019-03-11T03:41:56.868Z,5.12
2019-03-11T03:44:28.398Z,5.16
2019-03-11T03:47:00.071Z,5.20
2019-03-11T03:49:31.734Z,5.16
2019-03-11T03:52:03.258Z,5.02
2019-03-11T03:54:34.995Z,4.95
2019-03-11T03:57:06.493Z,4.97
2019-03-11T03:59:38.069Z,4.93
2019-03-11T04:02:09.646Z,4.94
2019-03-11T04:04:41.226Z,4.94
2019-03-11T04:07:12.747Z,4.98
2019-03-11T04:09:44.974Z,4.99
2019-03-11T04:12:16.686Z,4.92
2019-03-11T04:14:48.240Z,4.96
2019-03-11T04:17:19.960Z,4.96
2019-03-11T04:19:51.613Z,4.98
2019-03-11T04:22:23.233Z,4.97
2019-03-11T04:24:55.215Z,5.01
2019-03-11T04:27:27.788Z,4.93
2019-03-11T04:29:59.373Z,4.95
2019-03-11T04:32:31.121Z,4.91
2019-03-11T04:35:02.775Z,4.94
2019-03-11T04:37:34.353Z,4.89
2019-03-11T04:40:14.991Z,4.83
2019-03-11T04:42:46.618Z,4.75
2019-03-11T04:45:18.751Z,4.68
2019-03-11T04:47:50.456Z,4.68
2019-03-11T04:50:22.425Z,4.67
2019-03-11T04:52:54.137Z,4.59
2019-03-11T04:55:26.388Z,4.62
2019-03-11T04:57:57.974Z,4.59
2019-03-11T05:00:33.494Z,4.54
2019-03-11T05:03:05.072Z,4.52
2019-03-11T05:05:36.724Z,4.54
2019-03-11T05:08:08.320Z,4.54
2019-03-11T05:10:39.857Z,4.58
2019-03-11T05:13:11.446Z,4.49
2019-03-11T05:15:43.174Z,4.48
2019-03-11T05:18:14.800Z,4.34
2019-03-11T05:20:46.380Z,4.30
2019-03-11T05:23:18.143Z,3.87
2019-03-11T05:25:49.677Z,3.70
2019-03-11T05:28:21.220Z,3.54
2019-03-11T05:30:53.593Z,3.48
2019-03-11T05:33:25.093Z,3.28
2019-03-11T05:35:56.761Z,3.28
2019-03-11T05:38:28.378Z,3.25
2019-03-11T05:41:00.395Z,3.17
2019-03-11T05:43:31.917Z,3.21
2019-03-11T05:46:03.517Z,3.14
2019-03-11T05:48:35.251Z,3.03
2019-03-11T05:51:07.311Z,3.00
2019-03-11T05:53:40.621Z,3.10
2019-03-11T05:56:13.248Z,3.17
2019-03-11T05:58:44.896Z,3.27
2019-03-11T06:01:16.425Z,3.43
2019-03-11T06:03:48.015Z,3.54
2019-03-11T06:06:19.760Z,3.65
2019-03-11T06:08:51.570Z,3.75
2019-03-11T06:11:23.565Z,3.86
2019-03-11T06:13:55.448Z,3.93
2019-03-11T06:16:26.955Z,3.95
2019-03-11T06:18:58.547Z,3.95
2019-03-11T06:21:31.775Z,4.07
2019-03-11T06:24:03.402Z,4.10
2019-03-11T06:26:35.636Z,4.18
2019-03-11T06:29:08.240Z,4.33
2019-03-11T06:31:39.836Z,4.30
2019-03-11T06:34:11.441Z,4.30
2019-03-11T06:36:43.031Z,4.37
2019-03-11T06:39:14.756Z,4.46
2019-03-11T06:41:46.840Z,4.52
2019-03-11T06:44:18.354Z,4.57
2019-03-11T06:46:49.900Z,4.57
2019-03-11T06:49:21.449Z,4.63
2019-03-11T06:51:53.052Z,4.77
2019-03-11T06:54:24.706Z,4.80
2019-03-11T06:56:56.904Z,4.89
2019-03-11T06:59:28.414Z,4.97
2019-03-11T07:02:00.999Z,5.05
2019-03-11T07:04:32.587Z,5.07
2019-03-11T07:07:04.124Z,5.08
2019-03-11T07:09:36.058Z,5.11
2019-03-11T07:12:07.908Z,5.12
2019-03-11T07:14:39.894Z,5.16
2019-03-11T07:17:11.543Z,5.24
2019-03-11T07:19:43.261Z,5.32
2019-03-11T07:22:14.864Z,5.31
2019-03-11T07:24:47.354Z,5.34
2019-03-11T07:27:19.446Z,5.33
2019-03-11T07:29:51.074Z,5.28
2019-03-11T07:32:22.614Z,5.20
2019-03-11T07:34:54.187Z,5.10
2019-03-11T07:37:25.787Z,5.09
2019-03-11T07:39:57.854Z,5.07
2019-03-11T07:42:29.450Z,5.13
2019-03-11T07:45:01.065Z,5.14
2019-03-11T07:47:33.891Z,5.22
2019-03-11T07:50:07.719Z,5.12
2019-03-11T07:52:39.255Z,4.97
2019-03-11T07:55:15.476Z,4.91
2019-03-11T07:57:47.562Z,4.93
2019-03-11T08:00:22.233Z,5.06
2019-03-11T08:02:53.759Z,5.13
2019-03-11T08:05:25.347Z,5.21
2019-03-11T08:07:57.150Z,5.43
2019-03-11T08:10:28.846Z,5.64
2019-03-11T08:13:00.855Z,5.74
2019-03-11T08:15:33.601Z,5.77
2019-03-11T08:18:05.282Z,5.94
2019-03-11T08:20:36.930Z,6.00
2019-03-11T08:23:08.542Z,6.11
2019-03-11T08:25:40.143Z,6.13
2019-03-11T08:28:12.177Z,6.21
2019-03-11T08:30:43.832Z,6.22
2019-03-11T08:33:15.551Z,6.20
2019-03-11T08:35:47.129Z,6.17
2019-03-11T08:38:18.856Z,6.19
2019-03-11T08:40:52.423Z,6.22
2019-03-11T08:43:23.659Z,6.15
2019-03-11T08:45:55.200Z,6.11
2019-03-11T08:48:26.816Z,6.16
2019-03-11T08:50:58.357Z,6.17
2019-03-11T08:53:29.945Z,6.15
2019-03-11T08:56:01.537Z,6.17
2019-03-11T08:58:33.522Z,6.14
2019-03-11T09:01:05.065Z,6.20
2019-03-11T09:03:36.657Z,6.06
2019-03-11T09:06:08.244Z,6.14
2019-03-11T09:08:40.026Z,5.99
2019-03-11T09:11:11.694Z,5.93
2019-03-11T09:13:43.696Z,5.89
2019-03-11T09:16:15.264Z,5.81
2019-03-11T09:18:46.870Z,5.84
2019-03-11T09:21:18.623Z,6.06
2019-03-11T09:23:50.281Z,6.12
2019-03-11T09:26:22.910Z,6.10
2019-03-11T09:28:55.026Z,6.19
2019-03-11T09:31:26.810Z,6.13
2019-03-11T09:33:58.435Z,6.10
2019-03-11T09:36:30.061Z,6.07
2019-03-11T09:39:01.744Z,5.95
2019-03-11T09:41:35.006Z,5.99
2019-03-11T09:44:07.166Z,6.03
2019-03-11T09:46:38.921Z,5.98
2019-03-11T09:49:10.657Z,5.95
2019-03-11T09:51:42.533Z,6.10
2019-03-11T09:54:14.184Z,6.17
2019-03-11T09:56:45.725Z,6.08
2019-03-11T09:59:17.871Z,6.03
2019-03-11T10:01:49.372Z,6.05
2019-03-11T10:04:21.152Z,6.02
2019-03-11T10:06:52.906Z,5.99
2019-03-11T10:09:24.513Z,6.01
2019-03-11T10:11:56.255Z,5.93
2019-03-11T10:14:27.961Z,6.04
2019-03-11T10:16:59.898Z,5.99
2019-03-11T10:19:31.552Z,5.90
2019-03-11T10:22:03.074Z,5.85
2019-03-11T10:24:34.807Z,5.84
2019-03-11T10:27:06.335Z,5.83
2019-03-11T10:29:37.928Z,5.82
2019-03-11T10:32:10.027Z,5.92
2019-03-11T10:34:42.622Z,5.88
2019-03-11T10:37:14.210Z,5.97
2019-03-11T10:39:47.810Z,6.11
2019-03-11T10:42:18.933Z,6.14
2019-03-11T10:44:50.607Z,6.23
2019-03-11T10:47:22.874Z,6.25
2019-03-11T10:49:54.507Z,6.41
2019-03-11T10:52:26.098Z,6.41
2019-03-11T10:54:57.762Z,6.36
2019-03-11T10:57:29.233Z,6.44
2019-03-11T11:00:00.907Z,6.34
2019-03-11T11:02:33.975Z,6.38
2019-03-11T11:05:07.660Z,6.43
2019-03-11T11:07:39.255Z,6.56
2019-03-11T11:10:19.104Z,6.63
2019-03-11T11:12:50.679Z,6.73
2019-03-11T11:15:31.361Z,6.72
2019-03-11T11:18:03.048Z,6.75
2019-03-11T11:20:35.512Z,6.81
2019-03-11T11:23:08.115Z,6.79
2019-03-11T11:25:42.059Z,6.60
2019-03-11T11:28:14.458Z,6.66
2019-03-11T11:30:45.961Z,6.56
2019-03-11T11:33:17.571Z,6.32
2019-03-11T11:35:49.218Z,6.17
2019-03-11T11:38:20.897Z,6.00
2019-03-11T11:40:52.600Z,5.93
2019-03-11T11:43:24.115Z,5.83
2019-03-11T11:45:55.780Z,5.74
2019-03-11T11:48:27.492Z,5.60
2019-03-11T11:50:59.085Z,5.60
2019-03-11T11:53:30.747Z,5.39
2019-03-11T11:56:02.388Z,5.33
2019-03-11T11:58:34.095Z,5.37
2019-03-11T12:01:05.765Z,5.41
2019-03-11T12:03:37.410Z,5.44
2019-03-11T12:06:09.010Z,5.50
2019-03-11T12:08:40.531Z,5.43
2019-03-11T12:11:12.144Z,5.42
2019-03-11T12:13:43.873Z,5.48
2019-03-11T12:16:16.451Z,5.66
2019-03-11T12:18:47.975Z,5.72
2019-03-11T12:21:19.671Z,5.89
2019-03-11T12:23:51.194Z,5.99
2019-03-11T12:26:22.858Z,6.10
2019-03-11T12:28:54.417Z,6.20
2019-03-11T12:31:26.007Z,6.26
2019-03-11T12:33:58.043Z,6.35
2019-03-11T12:36:29.747Z,6.49
2019-03-11T12:39:01.538Z,6.61
2019-03-11T12:41:34.660Z,6.59
2019-03-11T12:44:06.175Z,6.41
2019-03-11T12:46:37.752Z,6.13
2019-03-11T12:49:09.414Z,6.18
2019-03-11T12:51:49.176Z,6.26
2019-03-11T12:54:14.177Z,6.35
2019-03-11T12:56:45.822Z,6.13
2019-03-11T12:59:17.407Z,6.00
2019-03-11T13:01:49.067Z,5.84
2019-03-11T13:04:20.641Z,5.64
2019-03-11T13:06:53.356Z,5.72
2019-03-11T13:09:25.435Z,5.59
2019-03-11T13:11:57.004Z,5.39
2019-03-11T13:14:28.676Z,5.30
2019-03-11T13:17:00.348Z,4.90
2019-03-11T13:19:33.099Z,4.88
2019-03-11T13:22:04.714Z,4.96
2019-03-11T13:24:36.285Z,4.91
2019-03-11T13:27:07.852Z,4.82
2019-03-11T13:29:39.368Z,4.77
2019-03-11T13:32:11.010Z,4.63
2019-03-11T13:34:42.650Z,4.48
2019-03-11T13:37:14.318Z,4.34
2019-03-11T13:39:45.998Z,4.26
2019-03-11T13:42:17.569Z,4.21
2019-03-11T13:44:49.242Z,4.27
2019-03-11T13:47:21.302Z,4.32
2019-03-11T13:49:52.929Z,4.38
2019-03-11T13:52:24.577Z,4.38
2019-03-11T13:54:56.175Z,4.45
2019-03-11T13:57:27.768Z,4.48
2019-03-11T13:59:59.425Z,4.55
2019-03-11T14:02:30.935Z,4.62
2019-03-11T14:05:02.527Z,4.80
2019-03-11T14:07:35.733Z,4.89
2019-03-11T14:10:10.298Z,5.04
2019-03-11T14:12:41.924Z,5.16
2019-03-11T14:15:17.970Z,5.32
2019-03-11T14:17:49.555Z,5.55
2019-03-11T14:20:21.072Z,5.59
2019-03-11T14:22:52.668Z,5.43
2019-03-11T14:25:24.249Z,5.25
2019-03-11T14:27:55.799Z,5.12
2019-03-11T14:30:27.345Z,4.99
2019-03-11T14:32:58.949Z,4.95
2019-03-11T14:35:30.561Z,4.86
2019-03-11T14:38:02.127Z,4.67
2019-03-11T14:40:34.719Z,4.36
2019-03-11T14:43:06.267Z,4.06
2019-03-11T14:45:37.826Z,4.14
2019-03-11T14:48:09.458Z,4.03
2019-03-11T14:50:40.977Z,3.86
2019-03-11T14:53:12.570Z,3.65
2019-03-11T14:55:44.097Z,3.77
2019-03-11T14:58:16.743Z,3.89
2019-03-11T15:00:48.307Z,3.91
2019-03-11T15:03:20.326Z,3.91
2019-03-11T15:05:53.564Z,4.04
2019-03-11T15:08:25.267Z,4.12
2019-03-11T15:10:57.758Z,4.12
2019-03-11T15:13:29.383Z,4.21
2019-03-11T15:16:01.150Z,4.15
2019-03-11T15:18:33.242Z,4.29
2019-03-11T15:21:04.753Z,4.43
2019-03-11T15:23:36.363Z,4.47
2019-03-11T15:26:09.794Z,4.55
2019-03-11T15:28:41.575Z,4.56
2019-03-11T15:31:16.429Z,4.63
2019-03-11T15:33:49.440Z,4.73
2019-03-11T15:36:23.108Z,4.76
2019-03-11T15:38:54.529Z,4.81
2019-03-11T15:41:26.358Z,4.58
2019-03-11T15:43:57.989Z,4.44
2019-03-11T15:46:38.872Z,4.33
2019-03-11T15:49:02.754Z,4.41
2019-03-11T15:51:36.942Z,4.48
2019-03-11T15:54:07.792Z,4.63
2019-03-11T15:56:39.314Z,4.66
2019-03-11T15:59:10.970Z,4.82
2019-03-11T16:01:42.609Z,4.88
2019-03-11T16:04:14.408Z,4.99
2019-03-11T16:06:45.910Z,4.98
2019-03-11T16:09:19.713Z,4.95
2019-03-11T16:11:50.904Z,4.99
2019-03-11T16:14:22.458Z,5.01
2019-03-11T16:16:55.043Z,5.02
2019-03-11T16:19:26.598Z,5.03
2019-03-11T16:21:58.185Z,5.06
2019-03-11T16:24:29.762Z,5.07
2019-03-11T16:27:01.543Z,5.05
2019-03-11T16:29:33.137Z,5.02
2019-03-11T16:32:04.738Z,5.06
2019-03-11T16:34:36.329Z,5.02
2019-03-11T16:37:07.911Z,4.94
2019-03-11T16:39:39.566Z,4.90
2019-03-11T16:42:11.123Z,4.92
2019-03-11T16:44:42.721Z,4.98
2019-03-11T16:47:14.242Z,4.99
2019-03-11T16:49:45.838Z,4.92
2019-03-11T16:52:17.337Z,4.95
2019-03-11T16:54:48.926Z,4.98
2019-03-11T16:57:20.476Z,4.97
2019-03-11T16:59:52.074Z,4.95
2019-03-11T17:02:23.778Z,4.95
2019-03-11T17:04:55.468Z,4.84
2019-03-11T17:07:27.201Z,4.82
2019-03-11T17:09:58.731Z,4.88
2019-03-11T17:12:30.322Z,4.92
2019-03-11T17:15:01.848Z,4.96
2019-03-11T17:17:33.758Z,4.96
2019-03-11T17:20:10.211Z,4.94
2019-03-11T17:22:42.315Z,5.01
2019-03-11T17:25:14.981Z,4.93
2019-03-11T17:27:49.838Z,4.95
2019-03-11T17:30:26.700Z,4.98
2019-03-11T17:32:58.511Z,4.98
2019-03-11T17:35:30.068Z,5.05
2019-03-11T17:38:02.047Z,5.06
2019-03-11T17:40:33.661Z,5.04
2019-03-11T17:43:05.482Z,5.06
2019-03-11T17:45:37.071Z,5.15
2019-03-11T17:48:08.820Z,5.14
2019-03-11T17:50:40.618Z,5.12
2019-03-11T17:53:19.878Z,5.13
2019-03-11T17:55:45.875Z,5.18
2019-03-11T17:58:17.456Z,5.25
2019-03-11T18:00:55.625Z,5.27
2019-03-11T18:03:24.016Z,5.28
2019-03-11T18:05:57.159Z,5.26
2019-03-11T18:08:28.916Z,5.29
2019-03-11T18:11:00.503Z,5.37
2019-03-11T18:13:32.350Z,5.39
2019-03-11T18:16:04.022Z,5.37
2019-03-11T18:18:35.615Z,5.29
2019-03-11T18:21:08.520Z,5.32
2019-03-11T18:23:40.123Z,5.34
2019-03-11T18:26:12.794Z,5.32
2019-03-11T18:28:45.471Z,5.33
2019-03-11T18:31:16.995Z,5.33
2019-03-11T18:33:48.527Z,5.25
2019-03-11T18:36:20.056Z,5.18
2019-03-11T18:38:51.545Z,5.19
2019-03-11T18:41:23.113Z,5.15
2019-03-11T18:43:54.678Z,5.11
2019-03-11T18:46:26.217Z,5.19
2019-03-11T18:48:57.827Z,5.23
2019-03-11T18:51:29.384Z,5.14
2019-03-11T18:54:01.024Z,5.16
2019-03-11T18:56:32.648Z,5.13
2019-03-11T18:59:04.185Z,5.17
2019-03-11T19:01:35.706Z,5.16
2019-03-11T19:04:07.261Z,5.13
2019-03-11T19:06:38.824Z,5.13
2019-03-11T19:09:10.414Z,5.09
2019-03-11T19:11:42.934Z,5.07
2019-03-11T19:14:14.669Z,5.01
2019-03-11T19:16:47.347Z,4.99
2019-03-11T19:19:19.046Z,4.96
2019-03-11T19:21:50.659Z,4.98
2019-03-11T19:24:22.717Z,4.94
2019-03-11T19:26:55.736Z,4.93
2019-03-11T19:29:27.604Z,4.98
2019-03-11T19:31:59.131Z,5.01
2019-03-11T19:34:30.961Z,5.01
2019-03-11T19:37:02.673Z,5.06
2019-03-11T19:39:34.188Z,5.08
2019-03-11T19:42:05.835Z,5.16
2019-03-11T19:44:37.766Z,5.19
2019-03-11T19:47:09.396Z,5.12
2019-03-11T19:49:41.132Z,5.01
2019-03-11T19:52:12.710Z,5.03
2019-03-11T19:54:44.512Z,5.02
2019-03-11T19:57:16.239Z,5.00
2019-03-11T19:59:47.840Z,4.93
2019-03-11T20:02:19.395Z,4.93
2019-03-11T20:04:51.172Z,4.92
2019-03-11T20:07:22.756Z,4.85
2019-03-11T20:09:54.562Z,4.78
2019-03-11T20:12:26.275Z,4.71
2019-03-11T20:14:58.887Z,4.66
2019-03-11T20:17:30.573Z,4.65
2019-03-11T20:20:02.166Z,4.62
2019-03-11T20:22:33.971Z,4.69
2019-03-11T20:25:13.319Z,4.63
2019-03-11T20:27:45.114Z,4.63
2019-03-11T20:30:20.164Z,4.61
2019-03-11T20:32:51.921Z,4.66
2019-03-11T20:35:23.556Z,4.64
2019-03-11T20:37:55.271Z,4.65
2019-03-11T20:40:26.991Z,4.64
2019-03-11T20:42:58.589Z,4.64
2019-03-11T20:45:30.432Z,4.63
2019-03-11T20:48:02.191Z,4.69
2019-03-11T20:50:42.022Z,4.61
2019-03-11T20:53:07.279Z,4.62
2019-03-11T20:55:38.909Z,4.60
2019-03-11T20:58:10.534Z,4.58
2019-03-11T21:00:42.189Z,4.61
2019-03-11T21:03:13.912Z,4.52
2019-03-11T21:05:53.216Z,4.51
2019-03-11T21:08:24.850Z,4.56
2019-03-11T21:10:56.940Z,4.42
2019-03-11T21:13:28.661Z,4.45
2019-03-11T21:16:00.221Z,4.43
2019-03-11T21:18:32.278Z,4.29
2019-03-11T21:21:05.341Z,4.27
2019-03-11T21:23:38.550Z,4.39
2019-03-11T21:26:13.644Z,4.35
2019-03-11T21:28:47.808Z,4.30
2019-03-11T21:31:20.437Z,4.33
2019-03-11T21:33:58.373Z,4.39
2019-03-11T21:36:25.674Z,4.45
2019-03-11T21:38:58.951Z,4.32
2019-03-11T21:41:31.015Z,4.25
2019-03-11T21:44:02.784Z,4.18
2019-03-11T21:46:34.518Z,4.12
2019-03-11T21:49:06.228Z,4.15
2019-03-11T21:51:37.736Z,4.13
2019-03-11T21:54:10.960Z,4.21
2019-03-11T21:56:43.049Z,4.30
2019-03-11T21:59:14.833Z,4.25
2019-03-11T22:01:46.667Z,4.31
2019-03-11T22:04:18.212Z,4.44
2019-03-11T22:06:49.823Z,4.51
2019-03-11T22:09:22.984Z,4.56
2019-03-11T22:11:54.636Z,4.56
2019-03-11T22:14:26.898Z,4.53
2019-03-11T22:16:58.543Z,4.53
2019-03-11T22:19:30.318Z,4.49
2019-03-11T22:22:01.899Z,4.43
2019-03-11T22:24:33.593Z,4.38
2019-03-11T22:27:05.203Z,4.41
2019-03-11T22:29:37.310Z,4.37
2019-03-11T22:32:08.960Z,4.33
2019-03-11T22:34:40.610Z,4.33
2019-03-11T22:37:12.339Z,4.22
2019-03-11T22:39:43.861Z,4.24
2019-03-11T22:42:15.519Z,4.18
2019-03-11T22:44:47.036Z,4.21
2019-03-11T22:47:18.751Z,4.14
2019-03-11T22:49:50.282Z,3.97
2019-03-11T22:52:22.945Z,3.94
2019-03-11T22:54:54.511Z,3.80
2019-03-11T22:57:26.041Z,3.68
2019-03-11T22:59:57.707Z,3.62
2019-03-11T23:02:29.516Z,3.56
2019-03-11T23:05:01.222Z,3.57
2019-03-11T23:07:34.216Z,3.55
2019-03-11T23:10:07.931Z,3.49
2019-03-11T23:12:40.175Z,3.45
2019-03-11T23:15:11.825Z,3.40
2019-03-11T23:17:43.653Z,3.45
2019-03-11T23:20:15.306Z,3.45
2019-03-11T23:22:46.842Z,3.42
2019-03-11T23:25:18.822Z,3.38
2019-03-11T23:27:51.415Z,3.33
2019-03-11T23:30:23.468Z,3.24
2019-03-11T23:32:55.059Z,3.23
2019-03-11T23:35:26.615Z,3.23
2019-03-11T23:37:58.126Z,3.16
2019-03-11T23:40:29.713Z,3.22
2019-03-11T23:43:01.818Z,3.29
2019-03-11T23:45:33.984Z,3.30
2019-03-11T23:48:05.587Z,3.28
2019-03-11T23:50:37.096Z,3.34
2019-03-11T23:53:08.604Z,3.38
2019-03-11T23:55:40.197Z,3.38
2019-03-11T23:58:12.694Z,3.37
